Terminal Aerodrome Forecast
Issued by NWS

Home | Current Version | Previous Version | Text Only | Print | Product List | Glossary On
Versions: 1 2 3 4 5 6 7 8 9 10 11 12 13 14
000
FTUS46 KMFR 192322
TAFRBG
TAF
KRBG 192322Z 2000/2024 01008KT P6SM SKC
     FM200300 02003KT P6SM SKC
     FM201200 00000KT 3SM BR SCT003
     FM201600 VRB03KT P6SM SKC=

USA.gov is the U.S. government's official web portal to all federal, state and local government web resources and services.